Time;durP1;ratioP1;P1;durP2;ratioP2;P2;SDS_P1;SDS_P2;PMS_P1;PMS_P2;Temp;Humidity;BMP_temperature;BMP_pressure;BME280_temperature;BME280_humidity;BME280_pressure;Samples;Min_cycle;Max_cycle;Signal;HPM_P1;HPM_P2
2021/09/03 00:01:04;;;;;;;21.27;10.63;;;;;;;25.39;38.57;101871.09;4463768;32;20072;-68
2021/09/03 00:03:31;;;;;;;18.60;9.35;;;;;;;25.37;38.73;101871.59;4460752;32;20072;-68
2021/09/03 00:05:58;;;;;;;26.95;9.50;;;;;;;25.38;38.70;101873.16;4462984;32;20056;-68
2021/09/03 00:08:24;;;;;;;18.30;8.38;;;;;;;25.48;38.90;101870.09;4467743;32;20072;-68
2021/09/03 00:10:50;;;;;;;19.95;9.57;;;;;;;25.19;39.24;101866.22;4468937;32;20503;-68
2021/09/03 00:13:15;;;;;;;19.85;9.18;;;;;;;25.20;39.33;101875.66;4464702;32;20037;-68
2021/09/03 00:15:41;;;;;;;21.17;8.43;;;;;;;25.25;39.47;101872.03;4470441;32;20029;-68
2021/09/03 00:18:07;;;;;;;24.70;9.50;;;;;;;25.47;39.13;101874.28;4465788;32;20523;-68
2021/09/03 00:20:33;;;;;;;26.50;10.95;;;;;;;25.05;40.03;101870.06;4464884;32;20068;-68
2021/09/03 00:22:59;;;;;;;25.10;10.05;;;;;;;25.08;39.90;101860.37;4467481;32;20713;-68
2021/09/03 00:25:25;;;;;;;22.20;9.70;;;;;;;25.26;39.53;101862.88;4467858;32;20029;-68
2021/09/03 00:27:52;;;;;;;26.70;10.75;;;;;;;25.26;39.51;101857.09;4460105;32;20076;-68
2021/09/03 00:30:18;;;;;;;24.08;11.18;;;;;;;25.29;39.56;101858.16;4459356;32;20041;-68
2021/09/03 00:32:43;;;;;;;21.33;9.98;;;;;;;25.31;39.69;101856.38;4451588;32;20073;-68
2021/09/03 00:35:09;;;;;;;20.88;9.88;;;;;;;25.24;39.73;101861.78;4457083;32;20549;-68
2021/09/03 00:37:35;;;;;;;21.60;9.85;;;;;;;25.20;39.79;101847.63;4454040;32;20041;-68
2021/09/03 00:40:01;;;;;;;29.17;11.30;;;;;;;25.35;39.53;101844.59;4436961;32;20425;-68
2021/09/03 00:42:27;;;;;;;24.80;10.65;;;;;;;25.29;39.88;101844.56;4450875;32;21125;-68
2021/09/03 00:44:52;;;;;;;25.42;10.63;;;;;;;25.20;40.16;101839.00;4453604;32;20041;-68
2021/09/03 00:47:19;;;;;;;28.85;10.15;;;;;;;25.50;39.98;101832.88;4453703;32;20107;-68
2021/09/03 00:49:44;;;;;;;21.48;9.60;;;;;;;25.29;40.62;101844.56;4453684;32;20033;-68
2021/09/03 00:52:11;;;;;;;28.80;10.00;;;;;;;25.10;40.88;101836.81;4454332;32;20069;-68
2021/09/03 00:54:37;;;;;;;25.15;10.82;;;;;;;24.97;41.52;101840.13;4453653;32;20062;-68
2021/09/03 00:57:03;;;;;;;27.65;10.93;;;;;;;25.18;41.58;101835.81;4453840;32;20619;-68
2021/09/03 00:59:29;;;;;;;30.30;11.40;;;;;;;25.27;42.00;101832.75;4455153;32;20072;-68
2021/09/03 01:01:55;;;;;;;24.80;9.85;;;;;;;25.09;42.32;101835.22;4452244;32;20064;-68
2021/09/03 01:04:21;;;;;;;24.70;9.63;;;;;;;25.14;42.54;101831.59;4451371;32;20041;-68
2021/09/03 01:06:48;;;;;;;22.77;10.10;;;;;;;25.04;42.31;101830.25;4454324;32;20026;-68
2021/09/03 01:09:14;;;;;;;22.37;10.20;;;;;;;24.99;42.59;101833.87;4452561;32;20489;-68
2021/09/03 01:11:40;;;;;;;23.15;10.70;;;;;;;24.99;42.29;101826.03;4451845;32;20155;-68
2021/09/03 01:14:06;;;;;;;26.70;10.18;;;;;;;24.87;42.38;101821.47;4453193;32;20108;-68
2021/09/03 01:16:32;;;;;;;25.95;10.05;;;;;;;24.73;42.37;101818.75;4453072;32;20448;-68
2021/09/03 01:18:59;;;;;;;26.37;9.52;;;;;;;24.84;42.58;101825.38;4451641;32;20036;-68
2021/09/03 01:21:26;;;;;;;21.08;9.48;;;;;;;25.06;42.15;101819.78;4452763;32;20416;-68
2021/09/03 01:23:51;;;;;;;24.50;9.30;;;;;;;25.04;42.15;101813.72;4454415;32;20108;-68
2021/09/03 01:26:17;;;;;;;27.42;9.75;;;;;;;24.83;42.01;101820.94;4456140;32;20025;-68
2021/09/03 01:28:46;;;;;;;22.70;9.55;;;;;;;24.62;42.37;101819.41;4449859;32;20084;-68
2021/09/03 01:31:12;;;;;;;21.92;8.38;;;;;;;24.92;41.80;101814.19;4456661;32;20055;-68
2021/09/03 01:33:38;;;;;;;24.05;9.27;;;;;;;24.84;42.03;101816.75;4453046;32;20395;-68
2021/09/03 01:36:04;;;;;;;21.08;8.23;;;;;;;24.80;41.79;101806.75;4453760;32;20082;-68
2021/09/03 01:38:30;;;;;;;19.77;8.73;;;;;;;24.64;41.86;101808.19;4452114;32;20144;-68
2021/09/03 01:40:56;;;;;;;20.50;7.70;;;;;;;24.86;41.52;101805.50;4455929;32;20067;-68
2021/09/03 01:43:25;;;;;;;22.80;7.93;;;;;;;24.91;41.16;101807.63;4453536;32;20033;-68
2021/09/03 01:45:52;;;;;;;17.00;7.00;;;;;;;24.93;41.01;101807.91;4454846;32;20110;-68
2021/09/03 01:48:18;;;;;;;19.27;7.35;;;;;;;24.77;41.12;101802.03;4452708;32;20071;-68
2021/09/03 01:50:45;;;;;;;21.35;8.15;;;;;;;24.92;40.61;101799.78;4455391;32;20393;-68
2021/09/03 01:53:11;;;;;;;16.40;8.10;;;;;;;25.12;40.36;101808.28;4454435;32;21722;-68
2021/09/03 01:55:37;;;;;;;19.98;8.90;;;;;;;24.67;41.45;101795.66;4453099;32;20033;-68
2021/09/03 01:58:03;;;;;;;27.80;9.90;;;;;;;24.64;42.48;101793.81;4452305;32;20069;-68
2021/09/03 02:00:29;;;;;;;22.98;9.45;;;;;;;24.36;42.79;101789.87;4449810;32;20140;-68
2021/09/03 02:02:55;;;;;;;15.65;8.32;;;;;;;24.52;42.87;101797.09;4450564;32;20041;-69
2021/09/03 02:05:21;;;;;;;20.83;8.55;;;;;;;24.59;42.27;101788.78;4451257;32;21018;-69
2021/09/03 02:07:47;;;;;;;22.10;8.80;;;;;;;24.85;41.99;101791.62;4453546;32;20077;-69
2021/09/03 02:10:13;;;;;;;21.08;8.90;;;;;;;24.57;42.40;101785.59;4455766;32;20402;-69
2021/09/03 02:12:38;;;;;;;48.97;29.65;;;;;;;24.68;42.46;101788.63;4452829;32;20080;-69
2021/09/03 02:15:05;;;;;;;33.75;13.68;;;;;;;24.62;42.62;101786.97;4450256;32;20096;-69
2021/09/03 02:17:31;;;;;;;22.50;9.05;;;;;;;24.79;42.21;101790.78;4454172;32;20080;-69
2021/09/03 02:19:57;;;;;;;16.48;7.87;;;;;;;24.67;42.03;101781.25;4451248;32;20061;-69
2021/09/03 02:22:23;;;;;;;20.50;7.57;;;;;;;24.76;41.64;101783.19;4454308;32;20049;-69
2021/09/03 02:24:48;;;;;;;17.35;7.78;;;;;;;24.84;41.36;101775.63;4455237;32;20128;-69
2021/09/03 02:27:14;;;;;;;20.33;8.02;;;;;;;24.93;41.09;101778.31;4452230;32;20025;-69
2021/09/03 02:29:40;;;;;;;18.92;7.97;;;;;;;24.88;41.63;101776.97;4453022;32;20078;-69
2021/09/03 02:32:06;;;;;;;24.25;7.47;;;;;;;24.85;41.58;101772.25;4453719;32;20071;-69
2021/09/03 02:34:31;;;;;;;19.60;7.20;;;;;;;24.95;41.65;101767.06;4455132;32;20081;-69
2021/09/03 02:36:57;;;;;;;21.40;8.02;;;;;;;24.61;41.92;101760.25;4453519;32;20474;-69
2021/09/03 02:39:23;;;;;;;17.02;8.15;;;;;;;24.82;41.57;101761.75;4436050;32;20088;-69
2021/09/03 02:41:49;;;;;;;26.30;7.78;;;;;;;24.84;41.49;101759.16;4453324;32;20419;-69
2021/09/03 02:44:15;;;;;;;16.52;7.75;;;;;;;24.96;41.59;101751.38;4454093;32;20067;-69
2021/09/03 02:46:41;;;;;;;21.75;8.20;;;;;;;24.86;41.33;101756.56;4454471;32;20429;-69
2021/09/03 02:49:07;;;;;;;21.55;8.88;;;;;;;24.79;41.83;101753.38;4451431;32;20040;-69
2021/09/03 02:51:32;;;;;;;17.65;7.53;;;;;;;24.60;42.09;101747.16;4451349;32;20116;-69
2021/09/03 02:53:58;;;;;;;16.75;8.57;;;;;;;24.36;42.40;101740.19;4450067;32;20118;-69
2021/09/03 02:56:24;;;;;;;19.05;7.68;;;;;;;24.54;41.87;101731.94;4451616;32;20339;-69
2021/09/03 02:58:49;;;;;;;16.52;7.93;;;;;;;24.47;42.04;101731.63;4452698;32;20085;-69
2021/09/03 03:01:15;;;;;;;21.08;8.48;;;;;;;24.52;41.74;101725.94;4453056;32;20068;-69
2021/09/03 03:03:40;;;;;;;17.67;8.07;;;;;;;24.36;42.33;101735.19;4451968;32;20408;-69
2021/09/03 03:06:06;;;;;;;16.40;7.32;;;;;;;24.50;41.87;101731.41;4452369;32;20076;-69
2021/09/03 03:08:31;;;;;;;18.73;7.35;;;;;;;24.67;41.52;101732.31;4452451;32;20369;-69
2021/09/03 03:10:59;;;;;;;18.37;7.45;;;;;;;24.69;41.35;101723.97;4437786;32;20158;-69
2021/09/03 03:13:26;;;;;;;18.23;7.85;;;;;;;24.80;40.91;101718.28;4452750;32;20033;-69
2021/09/03 03:15:53;;;;;;;16.77;7.20;;;;;;;24.80;41.05;101720.38;4455653;32;20524;-69
2021/09/03 03:18:19;;;;;;;19.30;6.93;;;;;;;24.99;40.67;101718.66;4439247;32;20101;-69
2021/09/03 03:20:46;;;;;;;17.00;7.62;;;;;;;24.85;40.46;101722.50;4451057;32;20081;-69
2021/09/03 03:23:13;;;;;;;19.92;7.05;;;;;;;24.81;40.94;101719.88;4449642;32;20092;-69
2021/09/03 03:25:39;;;;;;;19.08;7.65;;;;;;;24.81;41.15;101713.31;4450367;32;20068;-69
2021/09/03 03:28:05;;;;;;;25.15;7.87;;;;;;;24.79;41.08;101718.81;4452982;32;20106;-69
2021/09/03 03:30:31;;;;;;;17.40;9.02;;;;;;;25.03;41.05;101713.44;4454071;32;20070;-69
2021/09/03 03:32:57;;;;;;;22.23;9.90;;;;;;;24.86;41.69;101709.69;4454473;32;20485;-69
2021/09/03 03:35:22;;;;;;;25.40;9.98;;;;;;;24.69;42.40;101705.91;4456608;32;20032;-69
2021/09/03 03:37:49;;;;;;;25.58;10.55;;;;;;;24.53;42.96;101709.44;4456776;32;20472;-69
2021/09/03 03:40:17;;;;;;;19.67;10.02;;;;;;;24.66;42.96;101704.06;4451847;32;20143;-69
2021/09/03 03:42:42;;;;;;;19.67;10.32;;;;;;;24.61;42.98;101696.91;4448696;32;20024;-69
2021/09/03 03:45:09;;;;;;;20.05;10.52;;;;;;;24.31;43.15;101695.69;4451862;32;20070;-69
2021/09/03 03:47:35;;;;;;;19.37;9.38;;;;;;;24.56;42.66;101691.94;4450103;32;20072;-69
2021/09/03 03:50:01;;;;;;;21.70;9.48;;;;;;;24.61;42.69;101696.91;4454428;32;20041;-69
2021/09/03 03:52:27;;;;;;;16.75;8.27;;;;;;;24.25;43.37;101694.84;4450768;32;20096;-69
2021/09/03 03:54:52;;;;;;;20.77;10.02;;;;;;;24.39;43.13;101687.37;4451378;32;20025;-69
2021/09/03 03:57:18;;;;;;;19.90;10.70;;;;;;;24.21;43.93;101685.66;4451798;32;20088;-69
2021/09/03 03:59:44;;;;;;;18.25;9.85;;;;;;;24.24;44.26;101684.63;4452456;32;20056;-69
2021/09/03 04:02:09;;;;;;;19.35;9.20;;;;;;;24.25;44.19;101685.41;4451769;32;20081;-69
2021/09/03 04:04:35;;;;;;;22.40;9.55;;;;;;;24.33;43.95;101680.78;4452360;32;20033;-69
2021/09/03 04:07:01;;;;;;;26.10;10.13;;;;;;;24.33;43.75;101677.91;4453837;32;20095;-68
2021/09/03 04:09:27;;;;;;;26.62;11.00;;;;;;;24.48;43.55;101670.69;4453074;32;20449;-68
2021/09/03 04:11:54;;;;;;;21.83;10.35;;;;;;;24.34;43.53;101667.97;4457813;32;20096;-69
2021/09/03 04:14:21;;;;;;;24.08;11.68;;;;;;;24.46;43.32;101667.53;4455012;32;20416;-69
2021/09/03 04:16:47;;;;;;;28.35;12.88;;;;;;;24.25;43.35;101653.78;4455310;32;20053;-69
2021/09/03 04:19:13;;;;;;;23.33;11.15;;;;;;;24.27;43.33;101654.06;4457217;32;20458;-69
2021/09/03 04:21:39;;;;;;;27.80;11.40;;;;;;;24.43;43.09;101656.25;4452553;32;20067;-69
2021/09/03 04:24:06;;;;;;;25.45;10.85;;;;;;;24.22;43.46;101649.84;4454128;32;20076;-69
2021/09/03 04:26:32;;;;;;;23.27;11.02;;;;;;;24.30;43.24;101650.16;4456881;32;20076;-69
2021/09/03 04:28:59;;;;;;;20.35;10.23;;;;;;;24.30;43.46;101650.16;4455758;32;20148;-69
2021/09/03 04:31:24;;;;;;;28.15;11.10;;;;;;;24.11;43.96;101652.62;4456897;32;20021;-69
2021/09/03 04:33:50;;;;;;;23.85;10.73;;;;;;;24.16;43.81;101649.00;4451541;32;20509;-69
2021/09/03 04:36:16;;;;;;;19.77;9.52;;;;;;;24.26;43.81;101653.25;4457273;32;20537;-69
2021/09/03 04:38:42;;;;;;;22.27;10.77;;;;;;;24.08;44.11;101655.75;4454727;32;20099;-68
2021/09/03 04:41:08;;;;;;;20.55;10.40;;;;;;;24.02;44.56;101652.81;4453648;32;20037;-69
2021/09/03 04:43:34;;;;;;;23.27;10.25;;;;;;;24.02;44.77;101652.81;4451771;32;20070;-69
2021/09/03 04:45:59;;;;;;;18.87;10.13;;;;;;;24.06;44.40;101641.88;4455048;32;20132;-69
2021/09/03 04:48:25;;;;;;;19.85;10.27;;;;;;;24.06;44.24;101641.09;4454880;32;20100;-69
2021/09/03 04:50:52;;;;;;;16.05;9.07;;;;;;;23.95;44.44;101632.34;4450744;32;20041;-69
2021/09/03 04:53:18;;;;;;;20.62;10.52;;;;;;;24.10;44.12;101633.00;4454369;32;20041;-69
2021/09/03 04:55:44;;;;;;;19.90;9.98;;;;;;;24.24;43.81;101627.09;4456301;32;20051;-69
2021/09/03 04:58:09;;;;;;;24.33;10.07;;;;;;;24.13;43.50;101631.97;4455065;32;20112;-69
2021/09/03 05:00:35;;;;;;;24.23;10.35;;;;;;;23.94;44.16;101634.44;4453375;32;20055;-69
2021/09/03 05:03:01;;;;;;;24.65;9.80;;;;;;;24.18;43.53;101634.13;4453263;32;20708;-69
2021/09/03 05:05:27;;;;;;;21.73;10.70;;;;;;;24.31;43.20;101628.72;4457539;32;20037;-69
2021/09/03 05:07:53;;;;;;;24.25;9.75;;;;;;;24.36;42.92;101628.75;4452045;32;20481;-69
2021/09/03 05:10:19;;;;;;;24.30;10.52;;;;;;;24.23;42.76;101627.59;4453881;32;20150;-69
2021/09/03 05:12:44;;;;;;;23.70;9.82;;;;;;;24.24;42.46;101620.56;4452052;32;20400;-69
2021/09/03 05:15:13;;;;;;;19.55;9.52;;;;;;;24.29;42.01;101611.97;4453179;32;20391;-69
2021/09/03 05:17:40;;;;;;;22.92;9.73;;;;;;;24.58;41.66;101616.59;4455864;32;20451;-69
2021/09/03 05:20:06;;;;;;;22.35;9.90;;;;;;;24.52;41.64;101619.44;4456400;32;20422;-69
2021/09/03 05:22:34;;;;;;;20.45;9.52;;;;;;;24.52;41.69;101624.41;4456536;32;20511;-69
2021/09/03 05:25:01;;;;;;;18.37;9.45;;;;;;;24.56;41.52;101627.81;4455034;32;20106;-69
2021/09/03 05:27:27;;;;;;;19.40;10.02;;;;;;;24.51;41.27;101619.97;4455019;32;20162;-69
2021/09/03 05:29:53;;;;;;;26.40;10.45;;;;;;;24.37;41.32;101615.16;4454887;32;20474;-69
2021/09/03 05:32:19;;;;;;;22.05;9.70;;;;;;;24.34;41.57;101627.69;4454123;32;20040;-69
2021/09/03 05:34:45;;;;;;;21.98;11.38;;;;;;;24.36;41.49;101613.59;4453487;32;20033;-69
2021/09/03 05:37:10;;;;;;;25.40;12.30;;;;;;;24.27;41.76;101613.78;4458066;32;20374;-69
2021/09/03 05:39:36;;;;;;;29.90;12.57;;;;;;;24.04;42.27;101614.91;4450897;32;20110;-69
2021/09/03 05:42:02;;;;;;;28.05;12.35;;;;;;;24.24;41.98;101606.94;4459292;32;20163;-69
2021/09/03 05:44:28;;;;;;;29.92;14.15;;;;;;;24.37;41.77;101609.41;4455170;32;20044;-69
2021/09/03 05:46:54;;;;;;;30.12;12.23;;;;;;;24.46;41.70;101612.87;4453313;32;20088;-69
2021/09/03 05:49:19;;;;;;;25.30;13.15;;;;;;;24.50;41.75;101615.47;4453080;32;20140;-69
2021/09/03 05:51:45;;;;;;;33.03;13.55;;;;;;;24.37;42.10;101610.19;4451416;32;20096;-69
2021/09/03 05:54:10;;;;;;;28.25;13.93;;;;;;;24.32;42.42;101621.66;4450484;32;20077;-69
2021/09/03 05:56:37;;;;;;;28.62;13.32;;;;;;;24.65;42.04;101614.03;4457692;32;20091;-69
2021/09/03 05:59:04;;;;;;;34.15;13.27;;;;;;;24.56;42.27;101617.09;4451799;32;20486;-69
2021/09/03 06:01:30;;;;;;;36.88;14.18;;;;;;;24.60;41.99;101617.63;4451359;32;20064;-69
2021/09/03 06:03:55;;;;;;;35.50;13.85;;;;;;;24.22;42.68;101614.53;4453103;32;20308;-69
2021/09/03 06:06:22;;;;;;;35.95;13.88;;;;;;;24.29;42.65;101619.78;4451808;32;20068;-69
2021/09/03 06:08:49;;;;;;;25.65;13.20;;;;;;;24.35;42.54;101617.75;4453766;32;20080;-69
2021/09/03 06:11:15;;;;;;;25.92;13.05;;;;;;;24.36;42.24;101616.47;4454048;32;20485;-69
2021/09/03 06:13:40;;;;;;;35.00;13.35;;;;;;;24.26;42.75;101615.88;4454112;32;20029;-69
2021/09/03 06:16:06;;;;;;;22.10;13.07;;;;;;;24.43;42.29;101619.66;4437215;32;20111;-69
2021/09/03 06:18:32;;;;;;;28.40;13.50;;;;;;;24.62;42.03;101620.00;4454180;32;20093;-69
2021/09/03 06:20:58;;;;;;;25.05;12.65;;;;;;;24.41;42.42;101616.50;4452994;32;20040;-69
2021/09/03 06:23:23;;;;;;;28.60;13.00;;;;;;;24.63;42.00;101627.31;4453009;32;20460;-69
2021/09/03 06:25:49;;;;;;;27.25;12.55;;;;;;;24.62;42.09;101617.13;4450648;32;20102;-69
2021/09/03 06:28:15;;;;;;;26.83;12.82;;;;;;;24.78;41.61;101613.56;4449723;32;20430;-69
2021/09/03 06:30:41;;;;;;;29.42;13.27;;;;;;;24.66;41.79;101609.06;4446223;32;20189;-69
2021/09/03 06:33:07;;;;;;;25.42;12.13;;;;;;;24.77;41.56;101612.00;4453213;32;20080;-69
2021/09/03 06:35:33;;;;;;;29.35;12.77;;;;;;;24.82;41.30;101617.00;4447044;32;20269;-69
2021/09/03 06:37:59;;;;;;;31.15;13.68;;;;;;;24.78;41.32;101611.47;4445030;32;20077;-69
2021/09/03 06:40:25;;;;;;;28.42;13.30;;;;;;;24.92;41.28;101610.50;4442888;32;20115;-69
2021/09/03 06:42:50;;;;;;;30.83;13.73;;;;;;;25.00;40.82;101602.94;4450879;32;20788;-69
2021/09/03 06:45:16;;;;;;;28.23;14.00;;;;;;;24.93;40.91;101606.31;4435536;32;20061;-69
2021/09/03 06:47:42;;;;;;;29.90;13.57;;;;;;;24.63;41.86;101604.28;4431454;32;20095;-69
2021/09/03 06:50:09;;;;;;;29.77;13.55;;;;;;;24.74;41.75;101601.50;4426880;32;21091;-69
2021/09/03 06:52:35;;;;;;;35.50;14.35;;;;;;;24.73;42.04;101606.47;4413495;32;20122;-69
2021/09/03 06:55:02;;;;;;;35.75;16.42;;;;;;;24.84;41.65;101603.66;4422762;32;20045;-70
2021/09/03 06:57:31;;;;;;;43.00;17.30;;;;;;;24.88;41.67;101612.06;4422094;32;20095;-70
2021/09/03 06:59:57;;;;;;;43.33;17.45;;;;;;;24.79;42.06;101601.53;4415519;32;20540;-69
2021/09/03 07:02:23;;;;;;;41.45;19.15;;;;;;;24.73;42.16;101606.47;4420654;32;20456;-69
2021/09/03 07:04:49;;;;;;;45.08;17.10;;;;;;;24.92;42.25;101609.72;4423044;32;20080;-69
2021/09/03 07:07:15;;;;;;;52.45;18.98;;;;;;;24.88;41.90;101609.19;4421579;32;20466;-69
2021/09/03 07:09:41;;;;;;;41.10;17.50;;;;;;;24.95;41.85;101614.44;4428406;32;20331;-69
2021/09/03 07:12:07;;;;;;;34.10;16.12;;;;;;;24.98;41.79;101614.16;4426644;32;20057;-69
2021/09/03 07:14:33;;;;;;;32.17;15.75;;;;;;;25.09;41.42;101614.22;4425048;32;20111;-69
2021/09/03 07:16:59;;;;;;;30.80;15.57;;;;;;;24.97;41.52;101615.47;4413417;32;20045;-69
2021/09/03 07:19:25;;;;;;;30.70;16.00;;;;;;;25.20;41.19;101617.16;4422868;32;20088;-69
2021/09/03 07:21:50;;;;;;;36.88;17.17;;;;;;;24.74;41.82;101613.03;4427031;32;20105;-69
2021/09/03 07:24:16;;;;;;;33.63;15.90;;;;;;;24.94;41.37;101613.63;4426649;32;20120;-69
2021/09/03 07:26:42;;;;;;;36.92;15.68;;;;;;;25.14;40.95;101612.66;4426952;32;20065;-69
2021/09/03 07:29:08;;;;;;;37.22;16.02;;;;;;;25.23;40.64;101618.19;4428072;32;20117;-69
2021/09/03 07:31:34;;;;;;;33.05;15.85;;;;;;;24.70;41.65;101621.91;4423008;32;20422;-69
2021/09/03 07:34:00;;;;;;;36.08;16.05;;;;;;;25.16;40.89;101616.59;4425550;32;20139;-69
2021/09/03 07:36:26;;;;;;;32.95;16.05;;;;;;;25.27;40.95;101619.50;4422698;32;20070;-69
2021/09/03 07:38:52;;;;;;;33.45;15.98;;;;;;;25.20;41.26;101617.16;4426130;32;21093;-69
2021/09/03 07:41:21;;;;;;;33.85;15.50;;;;;;;25.20;41.25;101625.00;4429437;32;20045;-69
2021/09/03 07:43:47;;;;;;;35.22;18.17;;;;;;;25.08;41.25;101632.81;4429103;32;20143;-68
2021/09/03 07:46:15;;;;;;;33.72;17.17;;;;;;;25.23;41.31;101624.75;4430200;32;20175;-69
2021/09/03 07:48:41;;;;;;;38.42;18.12;;;;;;;25.33;40.88;101623.22;4434696;32;20037;-70
2021/09/03 07:51:07;;;;;;;37.72;17.02;;;;;;;25.34;41.71;101624.00;4428946;32;20185;-69
2021/09/03 07:53:32;;;;;;;33.38;16.62;;;;;;;25.38;40.95;101633.19;4428868;32;20104;-69
2021/09/03 07:55:58;;;;;;;30.15;15.70;;;;;;;25.42;40.99;101633.72;4429138;32;20073;-69
2021/09/03 07:58:24;;;;;;;33.78;16.85;;;;;;;25.53;41.20;101630.88;4429409;32;20101;-69
2021/09/03 08:00:49;;;;;;;40.03;17.17;;;;;;;25.47;41.46;101637.94;4427981;32;20483;-69
2021/09/03 08:03:15;;;;;;;34.42;17.75;;;;;;;25.46;41.53;101640.00;4430595;32;20115;-69
2021/09/03 08:05:41;;;;;;;36.85;18.27;;;;;;;25.34;42.21;101633.44;4429613;32;20169;-69
2021/09/03 08:08:07;;;;;;;37.83;18.33;;;;;;;25.46;42.04;101639.25;4427143;32;20088;-69
2021/09/03 08:10:34;;;;;;;37.55;18.05;;;;;;;25.49;41.98;101641.09;4428969;32;20497;-70
2021/09/03 08:13:02;;;;;;;35.88;17.25;;;;;;;25.60;41.13;101638.19;4426192;32;21342;-70
2021/09/03 08:15:30;;;;;;;31.08;14.82;;;;;;;25.69;41.32;101649.47;4428866;32;20093;-69
2021/09/03 08:17:56;;;;;;;31.92;15.63;;;;;;;25.56;41.76;101637.69;4429374;32;20488;-69
2021/09/03 08:20:22;;;;;;;34.10;16.20;;;;;;;25.57;41.96;101645.00;4427408;32;20102;-69
2021/09/03 08:22:50;;;;;;;30.10;14.38;;;;;;;25.39;41.83;101637.63;4418623;32;20116;-69
2021/09/03 08:25:17;;;;;;;29.67;16.52;;;;;;;25.55;42.19;101645.53;4430652;32;20056;-68
2021/09/03 08:27:43;;;;;;;27.58;15.60;;;;;;;25.41;42.28;101635.03;4414867;32;20119;-68
2021/09/03 08:30:09;;;;;;;36.88;17.37;;;;;;;25.33;42.77;101637.63;4429297;32;20085;-68
2021/09/03 08:32:34;;;;;;;33.60;17.52;;;;;;;25.33;42.61;101639.72;4430155;32;20064;-68
2021/09/03 08:35:01;;;;;;;42.85;18.67;;;;;;;25.55;42.30;101636.87;4429280;32;20085;-68
2021/09/03 08:37:26;;;;;;;38.05;18.67;;;;;;;25.46;42.44;101642.12;4428926;32;20128;-68
2021/09/03 08:39:54;;;;;;;36.75;17.00;;;;;;;25.42;42.81;101632.91;4428841;32;20469;-68
2021/09/03 08:42:20;;;;;;;38.65;17.60;;;;;;;25.36;42.52;101644.44;4429386;32;20099;-68
2021/09/03 08:44:45;;;;;;;32.90;17.75;;;;;;;25.40;42.56;101644.97;4430989;32;20061;-68
2021/09/03 08:47:13;;;;;;;38.38;18.52;;;;;;;24.96;43.47;101639.84;4429042;32;20072;-68
2021/09/03 08:49:41;;;;;;;38.50;17.02;;;;;;;25.49;42.56;101652.59;4427948;32;20140;-68
2021/09/03 08:52:07;;;;;;;35.20;16.50;;;;;;;25.52;42.50;101646.56;4427413;32;20066;-68
2021/09/03 08:54:33;;;;;;;37.13;17.27;;;;;;;25.49;43.15;101649.72;4429000;32;20048;-68
2021/09/03 08:56:59;;;;;;;30.02;16.10;;;;;;;25.42;42.81;101647.34;4433933;32;20150;-68
2021/09/03 08:59:25;;;;;;;32.50;18.05;;;;;;;25.34;42.99;101644.97;4433048;32;20281;-68
2021/09/03 09:02:12;;;;;;;30.25;16.27;;;;;;;25.05;43.18;101648.25;4432970;32;20077;-68
2021/09/03 09:04:41;;;;;;;35.13;17.48;;;;;;;25.50;42.53;101643.44;4430566;32;20131;-69
2021/09/03 09:07:07;;;;;;;35.13;18.30;;;;;;;25.40;42.95;101647.09;4435122;32;20122;-69
2021/09/03 09:09:38;;;;;;;34.60;18.08;;;;;;;25.14;43.44;101655.88;4429129;32;20072;-69
2021/09/03 09:12:11;;;;;;;37.45;17.58;;;;;;;25.24;42.79;101655.13;4430079;32;20088;-69
2021/09/03 09:17:43;;;;;;;32.85;17.98;;;;;;;26.27;41.26;101660.81;3963749;32;15153993;-69
2021/09/03 09:20:12;;;;;;;37.63;17.52;;;;;;;26.27;41.26;101660.81;4417441;32;20329;-69
2021/09/03 09:23:03;;;;;;;37.50;18.77;;;;;;;25.42;42.53;101655.97;4424182;32;20157;-70
2021/09/03 09:25:33;;;;;;;37.33;18.40;;;;;;;25.50;43.05;101660.75;4422924;32;20176;-70
2021/09/03 09:30:50;;;;;;;40.75;19.15;;;;;;;25.52;43.95;101663.09;3976269;31;15017108;-70
2021/09/03 09:33:19;;;;;;;39.63;20.92;;;;;;;25.52;43.95;101663.09;4439353;32;20134;-70
2021/09/03 09:38:25;;;;;;;50.20;20.45;;;;;;;25.54;44.04;101655.50;3970674;32;15022660;-70
2021/09/03 09:40:53;;;;;;;37.67;20.10;;;;;;;25.54;44.04;101655.50;4420831;32;20103;-69
2021/09/03 09:46:13;;;;;;;44.78;20.23;;;;;;;25.98;43.00;101654.81;3989608;31;15015126;-70
2021/09/03 09:51:48;;;;;;;52.92;21.45;;;;;;;26.25;42.35;101656.87;3969916;32;15022720;-70
2021/09/03 09:56:56;;;;;;;57.78;23.33;;;;;;;25.89;43.02;101646.38;3966078;32;15022735;-71
2021/09/03 09:59:24;;;;;;;49.72;22.02;;;;;;;25.89;43.02;101646.38;4423140;32;20143;-68
2021/09/03 10:01:53;;;;;;;53.75;22.00;;;;;;;25.31;43.52;101640.25;4421500;32;20055;-69
2021/09/03 10:04:22;;;;;;;46.45;21.77;;;;;;;25.68;42.92;101645.81;4416730;32;20144;-69
2021/09/03 10:06:49;;;;;;;51.45;22.45;;;;;;;25.22;44.26;101636.78;4411530;32;20507;-70
2021/09/03 10:09:19;;;;;;;43.33;19.67;;;;;;;25.77;42.83;101639.03;4420097;32;20068;-69
2021/09/03 10:11:48;;;;;;;38.85;20.00;;;;;;;26.13;42.74;101652.41;4418348;32;20481;-69
2021/09/03 10:14:20;;;;;;;39.50;20.52;;;;;;;26.20;42.10;101641.13;4423231;32;20120;-69
2021/09/03 10:16:48;;;;;;;38.72;20.17;;;;;;;26.49;41.94;101646.34;4415228;32;20056;-69
2021/09/03 10:19:17;;;;;;;38.10;21.05;;;;;;;26.34;42.17;101642.97;4423168;32;20089;-70
2021/09/03 10:21:43;;;;;;;42.88;21.08;;;;;;;26.43;41.27;101641.88;4418626;32;20696;-70
2021/09/03 10:26:46;;;;;;;41.42;19.83;;;;;;;27.15;40.74;101639.56;3960857;32;15023510;-69
2021/09/03 10:37:26;;;;;;;37.30;18.12;;;;;;;26.84;40.38;101642.84;3984658;31;15016104;-69
2021/09/03 10:53:20;;;;;;;41.05;18.52;;;;;;;26.89;40.24;101634.19;3976160;31;15015898;-70
2021/09/03 11:09:01;;;;;;;41.95;20.73;;;;;;;27.36;39.58;101623.44;3987255;31;15016259;-70
2021/09/03 11:11:32;;;;;;;43.80;20.12;;;;;;;27.36;39.58;101623.44;4447291;32;20485;-68
2021/09/03 11:19:20;;;;;;;50.60;20.55;;;;;;;27.05;40.39;101620.97;3969862;32;15027764;-67
2021/09/03 11:21:56;;;;;;;46.03;21.08;;;;;;;26.54;41.12;101605.09;4416536;32;20582;-70
2021/09/03 11:24:24;;;;;;;;;;;;;;;26.76;41.09;101607.19;4418301;32;20520;-68
2021/09/03 11:26:52;;;;;;;40.53;19.83;;;;;;;26.76;41.00;101607.97;4420801;32;19992;-70
2021/09/03 11:29:29;;;;;;;35.65;19.33;;;;;;;26.87;41.01;101601.34;4421772;32;20162;-68
2021/09/03 11:48:01;;;;;;;39.25;19.50;;;;;;;27.97;37.38;101594.09;3991365;31;15017091;-70
2021/09/03 11:53:08;;;;;;;36.65;18.90;;;;;;;27.88;37.45;101588.63;3961464;32;15024229;-70
2021/09/03 11:55:38;;;;;;;38.70;17.77;;;;;;;27.88;37.45;101588.63;4411574;32;20055;-69
2021/09/03 12:00:44;;;;;;;30.92;17.98;;;;;;;27.89;37.48;101581.56;3964999;32;15023739;-71
2021/09/03 12:05:55;;;;;;;39.85;19.45;;;;;;;27.89;36.93;101579.41;3966386;32;15022445;-70
2021/09/03 12:13:43;;;;;;;45.70;21.75;;;;;;;27.99;36.96;101574.09;3974460;32;15022968;-70
2021/09/03 12:16:13;;;;;;;40.25;20.67;;;;;;;27.99;36.96;101574.09;4426728;32;20358;-70
2021/09/03 12:26:50;;;;;;;43.22;21.62;;;;;;;28.94;34.86;101581.19;3979596;31;15013768;-67
2021/09/03 12:31:58;;;;;;;40.20;21.70;;;;;;;28.89;35.01;101574.12;3974828;32;15023274;-70
2021/09/03 12:34:26;;;;;;;44.55;22.15;;;;;;;28.89;35.01;101574.12;4426751;32;20105;-68
2021/09/03 12:36:58;;;;;;;44.42;21.52;;;;;;;28.44;35.31;101581.75;4425133;32;20151;-68
2021/09/03 12:39:25;;;;;;;48.40;22.58;;;;;;;28.41;35.76;101568.38;4424976;32;20077;-69
2021/09/03 12:41:52;;;;;;;44.05;21.62;;;;;;;28.27;36.12;101565.91;4423247;32;20049;-69
2021/09/03 12:46:59;;;;;;;45.42;22.25;;;;;;;28.50;36.67;101559.34;3974675;32;15032630;-70
2021/09/03 12:49:26;;;;;;;48.20;23.17;;;;;;;28.50;36.67;101559.34;4428106;32;20077;-71